Latest Weather Observations for Ulladulla

IDN60901

Issued at 7:05 pm EST Tuesday 2 September 2014 (issued every 10 minutes, with the page automatically refreshed every 10 minutes)

About weather observations | Map of Canberra area stations | Latest observations for Canberra area | Other Formats
Station Details ID: 069138 Name: ULLADULLA AWS Lat: -35.36 Lon: 150.48 Height: 35.7 m
Data from the previous 72 hours. | See also: Recent months at Ulladulla
Date/Time
EST
Tmp

°C
App
Tmp
°C
Dew
Point
°C
Rel
Hum
%
Delta-T

°C
Wind Press
QNH
hPa
Press
MSL
hPa
Rain
since
9 am
mm
Dir
 
Spd
km/h
Gust
km/h
Spd
kts
Gust
kts
02/07:00pm 8.6 2.9 6.9 89 0.8 SW 26 46 14 25 1011.4 1011.4 2.8
02/06:30pm 8.7 4.2 6.8 88 0.9 WSW 20 33 11 18 1011.0 - 1.8
02/06:00pm 9.2 4.6 6.5 83 1.3 SW 20 41 11 22 1011.1 1011.1 0.4
02/05:30pm 9.8 4.7 6.0 77 1.8 SW 22 35 12 19 1010.7 - 0.0
02/05:00pm 9.8 4.0 6.3 79 1.6 SW 26 41 14 22 1010.3 1010.3 0.0
02/04:30pm 11.8 5.6 6.1 68 2.7 SSW 28 41 15 22 1009.9 - 0.0
02/04:04pm 13.4 7.1 7.2 66 3.0 SSW 30 52 16 28 1009.0 - 0.0
02/04:00pm 13.6 7.6 7.2 65 3.1 SSW 28 43 15 23 1008.9 1008.9 0.0
02/03:52pm 13.8 8.2 8.6 71 2.6 SSW 28 41 15 22 1008.8 - 0.0
02/03:30pm 13.0 10.1 8.1 72 2.4 SW 13 19 7 10 1008.6 - 0.0
02/03:00pm 13.1 7.5 7.3 68 2.8 SSW 26 39 14 21 1008.5 1008.5 0.0
02/02:30pm 14.0 8.6 7.8 66 3.1 S 26 37 14 20 1008.4 - 0.0
02/02:00pm 15.2 11.4 7.5 60 3.8 SSW 17 24 9 13 1008.2 1008.2 0.0
02/01:30pm 14.0 11.2 8.4 69 2.8 S 13 19 7 10 1008.2 - 0.0
02/01:00pm 15.8 12.7 7.3 57 4.2 SSW 13 20 7 11 1008.2 1008.2 0.0
02/12:30pm 15.2 12.3 6.5 56 4.2 SSW 11 19 6 10 1008.7 - 0.0
02/12:00pm 15.1 12.8 5.9 54 4.4 WSW 7 15 4 8 1009.0 1009.0 0.0
02/11:30am 14.8 12.3 6.4 57 4.1 WSW 9 17 5 9 1009.0 - 0.0
02/11:00am 16.8 14.0 6.9 52 4.9 SW 11 20 6 11 1009.1 1009.1 0.0
02/10:30am 14.3 12.6 8.3 67 3.0 W 7 11 4 6 1009.5 - 0.0
02/10:00am 12.6 10.3 7.3 70 2.6 WSW 9 20 5 11 1010.0 1010.0 0.0
02/09:30am 12.0 8.0 6.7 70 2.5 SW 17 28 9 15 1010.3 - 0.0
02/09:00am 12.2 7.5 7.9 75 2.1 SSW 22 35 12 19 1010.2 1010.2 0.0
02/08:30am 12.6 4.9 8.7 77 1.9 S 39 56 21 30 1009.8 - 0.0
02/08:11am 13.2 7.6 8.7 74 2.3 S 28 50 15 27 1009.7 - 0.0
02/08:00am 13.5 11.6 6.8 64 3.2 W 6 11 3 6 1009.5 1009.5 0.0
02/07:30am 13.5 11.0 6.6 63 3.3 W 9 15 5 8 1008.9 - 0.0
02/07:00am 13.3 10.9 6.9 65 3.1 W 9 15 5 8 1008.2 1008.2 0.0
02/06:30am 12.9 11.1 7.1 68 2.8 WSW 6 15 3 8 1007.9 - 0.0
02/06:00am 14.0 12.0 6.1 59 3.8 W 6 11 3 6 1007.6 1007.6 0.0
02/05:30am 14.2 12.3 6.6 60 3.7 SSE 6 13 3 7 1007.4 - 0.0
02/05:00am 14.1 12.8 6.2 59 3.8 NW 2 6 1 3 1007.2 1007.1 0.0
02/04:30am 14.5 13.0 6.6 59 3.8 NNW 4 6 2 3 1007.4 - 0.0
02/04:00am 15.4 12.8 6.2 54 4.5 WNW 9 17 5 9 1007.9 1007.9 0.0
02/03:30am 15.5 12.5 6.0 53 4.6 WNW 11 17 6 9 1008.0 - 0.0
02/03:00am 15.9 12.5 5.8 51 4.9 WNW 13 22 7 12 1008.1 1008.1 0.0
02/02:30am 16.4 12.2 5.7 49 5.2 NW 17 26 9 14 1008.2 - 0.0
02/02:00am 16.9 13.5 6.1 49 5.3 WNW 13 22 7 12 1008.5 1008.5 0.0
02/01:30am 17.4 14.5 6.3 48 5.5 NW 11 22 6 12 1008.4 - 0.0
02/01:00am 16.0 14.0 6.4 53 4.7 NNW 6 9 3 5 1008.4 1008.4 0.0
02/12:30am 16.0 14.0 6.4 53 4.7 NNW 6 7 3 4 1008.5 - 0.0
02/12:00am 16.5 13.9 6.1 50 5.1 NNW 9 11 5 6 1008.5 1008.5 0.0
 
Date/Time
EST
Tmp

°C
App
Tmp
°C
Dew
Point
°C
Rel
Hum
%
Delta-T

°C
Wind Press
QNH
hPa
Press
MSL
hPa
Rain
since
9 am
mm
Dir
 
Spd
km/h
Gust
km/h
Spd
kts
Gust
kts
01/11:30pm 16.7 14.2 6.5 51 5.0 N 9 15 5 8 1008.5 - 0.0
01/11:00pm 16.6 14.8 7.3 54 4.7 N 6 11 3 6 1008.8 1008.8 0.0
01/10:30pm 16.5 14.6 6.9 53 4.8 N 6 9 3 5 1009.1 - 0.0
01/10:00pm 17.4 15.3 6.6 49 5.4 N 7 17 4 9 1009.3 1009.3 0.0
01/09:30pm 17.4 15.5 6.9 50 5.2 N 6 9 3 5 1009.4 - 0.0
01/09:00pm 17.8 15.8 7.0 49 5.4 N 7 11 4 6 1009.6 1009.6 0.0
01/08:30pm 17.7 15.9 8.0 53 4.9 N 7 11 4 6 1009.7 - 0.0
01/08:00pm 17.9 16.0 7.6 51 5.2 N 7 13 4 7 1009.9 1009.9 0.0
01/07:30pm 18.2 16.2 7.3 49 5.5 N 7 9 4 5 1010.1 - 0.0
01/07:00pm 18.1 16.4 7.5 50 5.4 NNW 6 9 3 5 1010.0 1010.0 0.0
01/06:30pm 18.5 16.3 6.4 45 6.0 NNW 7 11 4 6 1009.9 - 0.0
01/06:00pm 19.0 17.1 6.5 44 6.3 NNW 6 11 3 6 1009.7 1009.7 0.0
01/05:30pm 19.1 16.9 6.2 43 6.4 NNW 7 13 4 7 1009.6 - 0.0
01/05:00pm 19.5 17.6 6.6 43 6.5 N 6 13 3 7 1009.5 1009.5 0.0
01/04:30pm 19.6 17.8 7.0 44 6.4 NNW 6 17 3 9 1009.4 - 0.0
01/04:00pm 20.0 18.6 7.1 43 6.6 N 4 7 2 4 1009.3 1009.3 0.0
01/03:30pm 20.6 19.0 7.9 44 6.6 NNW 6 11 3 6 1009.3 - 0.0
01/03:00pm 20.9 20.1 8.2 44 6.6 NNE 2 6 1 3 1009.3 1009.3 0.0
01/02:30pm 21.3 20.5 8.2 43 6.9 ENE 2 4 1 2 1009.7 - 0.0
01/02:00pm 21.9 20.0 6.6 37 7.8 NNW 6 15 3 8 1010.0 1010.0 0.0
01/01:30pm 21.6 19.7 7.4 40 7.3 NW 7 13 4 7 1010.5 - 0.0
01/01:00pm 21.5 17.4 6.2 37 7.7 NW 17 24 9 13 1010.9 1010.9 0.0
01/12:30pm 21.8 17.7 6.1 36 7.9 NW 17 24 9 13 1011.3 - 0.0
01/12:00pm 21.3 20.2 8.6 44 6.7 ENE 4 13 2 7 1011.8 1011.8 0.0
01/11:30am 20.1 18.9 9.7 51 5.6 ENE 6 9 3 5 1012.3 - 0.0
01/11:00am 19.8 19.0 9.7 52 5.4 NE 4 9 2 5 1012.8 1012.8 0.0
01/10:30am 20.2 18.7 8.5 47 6.1 WNW 6 15 3 8 1013.1 - 0.0
01/10:00am 18.9 15.4 7.0 46 6.0 NW 15 26 8 14 1013.5 1013.5 0.0
01/09:30am 17.5 15.2 7.5 52 5.0 NW 9 19 5 10 1014.0 - 0.0
01/09:00am 17.7 15.5 7.7 52 5.1 NW 9 15 5 8 1014.4 1014.4 0.0
01/08:30am 16.6 14.5 8.3 58 4.2 NW 9 20 5 11 1014.5 - 0.0
01/08:00am 13.8 12.4 9.5 75 2.2 NNW 7 17 4 9 1014.6 1014.6 0.0
01/07:30am 12.1 11.1 8.9 81 1.6 NNW 4 7 2 4 1014.5 - 0.0
01/07:00am 11.4 10.3 8.3 81 1.5 NW 4 7 2 4 1014.5 1014.5 0.0
01/06:30am 10.3 8.6 7.7 84 1.3 NW 6 11 3 6 1014.4 - 0.0
01/06:00am 10.3 8.8 8.6 89 0.8 NW 6 7 3 4 1014.3 1014.3 0.0
01/05:30am 10.9 9.5 8.8 87 1.0 N 6 9 3 5 1014.1 - 0.0
01/05:00am 11.4 9.9 8.3 81 1.5 N 6 9 3 5 1014.1 1014.1 0.0
01/04:30am 12.6 10.5 6.6 67 2.9 NW 7 13 4 7 1014.1 - 0.0
01/04:00am 12.6 10.6 6.9 68 2.7 NW 7 9 4 5 1014.0 1014.0 0.0
01/03:30am 10.9 9.2 7.4 79 1.7 NNW 6 7 3 4 1014.2 - 0.0
01/03:00am 10.2 8.5 8.3 88 0.9 N 7 7 4 4 1014.4 1014.4 0.0
01/02:30am 9.1 7.0 6.7 85 1.1 N 7 9 4 5 1014.6 - 0.0
01/02:00am 9.4 8.1 7.7 89 0.8 NNW 4 6 2 3 1015.0 1015.0 0.0
01/01:30am 10.3 8.7 8.7 90 0.8 N 7 9 4 5 1015.5 - 0.0
01/01:00am 9.9 8.2 8.5 91 0.7 N 7 9 4 5 1015.8 1015.8 0.0
01/12:30am 11.4 10.1 9.8 90 0.8 NNW 7 7 4 4 1016.1 - 0.0
01/12:00am 11.7 10.5 10.4 92 0.7 N 7 9 4 5 1016.3 1016.3 0.0
 
Date/Time
EST
Tmp

°C
App
Tmp
°C
Dew
Point
°C
Rel
Hum
%
Delta-T

°C
Wind Press
QNH
hPa
Press
MSL
hPa
Rain
since
9 am
mm
Dir
 
Spd
km/h
Gust
km/h
Spd
kts
Gust
kts
31/11:30pm 11.7 10.5 10.4 92 0.7 NNW 7 9 4 5 1016.6 - 0.0
31/11:00pm 11.9 10.8 10.6 92 0.7 NNW 7 7 4 4 1016.7 1016.7 0.0
31/10:30pm 12.4 11.5 10.6 89 0.9 N 6 7 3 4 1017.1 - 0.0
31/10:00pm 13.3 12.5 11.2 87 1.1 N 6 9 3 5 1017.4 1017.4 0.0
31/09:30pm 13.5 12.8 11.4 87 1.1 N 6 9 3 5 1017.4 - 0.0
31/09:00pm 13.5 12.8 11.4 87 1.1 NNW 6 9 3 5 1017.6 1017.6 0.0
31/08:30pm 14.0 12.9 11.9 87 1.1 N 9 11 5 6 1017.5 - 0.0
31/08:00pm 14.2 13.5 12.1 87 1.1 N 7 11 4 6 1017.5 1017.5 0.0
31/07:30pm 14.7 14.1 12.4 86 1.3 N 7 11 4 6 1017.6 - 0.0
31/07:00pm 15.2 14.3 12.5 84 1.5 N 9 15 5 8 1017.4 1017.4 0.0
31/06:30pm 15.5 14.9 12.4 82 1.7 NE 7 13 4 7 1017.2 - 0.0
31/06:00pm 15.5 14.8 12.1 80 1.9 NE 7 13 4 7 1017.2 1017.2 0.0
31/05:30pm 15.7 14.6 12.1 79 2.0 NE 9 13 5 7 1016.8 - 0.0
31/05:00pm 16.0 14.9 11.8 76 2.3 NNE 9 11 5 6 1016.7 1016.7 0.0
31/04:30pm 16.5 16.1 12.3 76 2.3 NE 6 9 3 5 1016.6 - 0.0
31/04:00pm 16.5 15.4 12.1 75 2.4 NNE 9 13 5 7 1016.6 1016.6 0.0
31/03:30pm 16.9 16.2 12.0 73 2.7 ENE 7 11 4 6 1016.9 - 0.0
31/03:00pm 16.9 16.2 12.0 73 2.7 ENE 7 11 4 6 1017.1 1017.1 0.0
31/02:30pm 17.1 16.5 12.2 73 2.7 ENE 7 11 4 6 1017.4 - 0.0
31/02:00pm 17.0 16.4 12.3 74 2.6 ENE 7 13 4 7 1017.6 1017.6 0.0
31/01:30pm 16.6 15.7 11.3 71 2.9 ENE 7 11 4 6 1018.0 - 0.0
31/01:00pm 16.9 16.1 11.8 72 2.8 E 7 11 4 6 1018.4 1018.4 0.0
31/12:30pm 16.8 15.6 11.5 71 2.9 E 9 11 5 6 1018.8 - 0.0
31/12:00pm 16.8 15.4 10.9 68 3.2 E 9 13 5 7 1019.2 1019.2 0.0
31/11:30am 17.4 16.6 11.7 69 3.1 ESE 7 11 4 6 1019.7 - 0.0
31/11:00am 16.9 15.8 10.7 67 3.3 SE 7 9 4 5 1020.2 1020.2 0.0
31/10:30am 16.7 15.9 11.0 69 3.1 SE 6 11 3 6 1020.5 - 0.0
31/10:00am 16.0 14.9 10.5 70 2.9 SSE 7 9 4 5 1020.6 1020.6 0.0
31/09:30am 16.2 15.0 10.3 68 3.1 S 7 9 4 5 1020.8 - 0.0
31/09:00am 16.1 15.0 10.0 67 3.2 SSW 6 7 3 4 1021.0 1021.0 0.0
31/08:30am 15.6 14.4 9.7 68 3.1 WSW 6 9 3 5 1021.0 - 0.0
31/08:00am 14.9 13.6 10.1 73 2.5 W 7 11 4 6 1021.0 1021.0 0.0
31/07:30am 13.8 12.6 10.2 79 1.9 W 7 9 4 5 1020.8 - 0.0
31/07:00am 11.6 10.1 9.3 86 1.2 W 7 11 4 6 1020.7 1020.7 0.0
31/06:30am 10.4 8.7 8.2 86 1.1 W 7 9 4 5 1020.6 - 0.0
31/06:00am 10.5 8.7 8.1 85 1.2 W 7 11 4 6 1020.5 1020.5 0.0
31/05:30am 10.8 8.7 8.2 84 1.3 W 9 11 5 6 1020.5 - 0.0
31/05:00am 11.1 9.4 8.5 84 1.3 WSW 7 11 4 6 1020.6 1020.6 0.0
31/04:30am 11.4 9.4 8.8 84 1.3 WSW 9 13 5 7 1020.6 - 0.0
31/04:00am 11.3 9.3 8.7 84 1.3 WSW 9 15 5 8 1020.6 1020.6 0.0
31/03:30am 11.5 9.6 9.1 85 1.2 WSW 9 15 5 8 1020.7 - 0.0
31/03:00am 11.5 9.6 9.1 85 1.2 WSW 9 15 5 8 1020.9 1020.9 0.0
31/02:30am 11.8 9.9 9.2 84 1.3 WSW 9 17 5 9 1021.1 - 0.0
31/02:00am 11.8 9.6 9.5 86 1.2 WSW 11 17 6 9 1021.2 1021.2 0.0
31/01:30am 11.8 9.6 9.5 86 1.2 WSW 11 17 6 9 1021.6 - 0.0
31/01:00am 12.2 10.1 9.9 86 1.2 WSW 11 15 6 8 1021.9 1021.9 0.0
31/12:30am 12.2 10.1 9.9 86 1.2 WSW 11 17 6 9 1022.1 - 0.0
31/12:00am 12.4 10.7 10.0 85 1.2 WSW 9 17 5 9 1022.3 1022.3 0.0
 
Date/Time
EST
Tmp

°C
App
Tmp
°C
Dew
Point
°C
Rel
Hum
%
Delta-T

°C
Wind Press
QNH
hPa
Press
MSL
hPa
Rain
since
9 am
mm
Dir
 
Spd
km/h
Gust
km/h
Spd
kts
Gust
kts
30/11:30pm 12.7 11.2 10.4 86 1.2 WSW 9 15 5 8 1022.5 - 0.0
30/11:00pm 12.1 10.8 9.8 86 1.2 WSW 7 11 4 6 1022.7 1022.7 0.0
30/10:30pm 12.2 10.5 9.8 85 1.2 WSW 9 15 5 8 1022.9 - 0.0
30/10:00pm 12.5 10.8 10.0 85 1.3 WSW 9 13 5 7 1023.2 1023.2 0.0
30/09:30pm 12.8 11.1 10.0 83 1.4 WSW 9 15 5 8 1023.3 - 0.0
30/09:00pm 13.1 11.4 9.9 81 1.6 SW 9 13 5 7 1023.4 1023.4 0.0
30/08:30pm 13.5 11.5 10.1 80 1.8 SW 11 17 6 9 1023.5 - 0.0
30/08:00pm 14.1 11.8 10.3 78 2.0 SSW 13 22 7 12 1023.4 1023.4 0.0
30/07:30pm 14.4 11.4 10.6 78 2.0 SSW 17 24 9 13 1023.3 - 0.0

Latest Capital City Observations: Canberra | Sydney | Melbourne | Brisbane | Adelaide | Perth | Hobart | Darwin

Other Formats:

Comma delimited format used in spreadsheet applications
http://www.bom.gov.au/fwo/IDN60903/IDN60903.94938.axf

JavaScript Object Notation format (JSON) in row-major order
http://www.bom.gov.au/fwo/IDN60903/IDN60903.94938.json